Time;durP1;ratioP1;P1;durP2;ratioP2;P2;SDS_P1;SDS_P2;PMS_P1;PMS_P2;Temp;Humidity;BMP_temperature;BMP_pressure;BME280_temperature;BME280_humidity;BME280_pressure;Samples;Min_cycle;Max_cycle;Signal;HPM_P1;HPM_P2
2023/09/18 00:01:39;;;;;;;22.90;16.50;;;15.90;99.90;;;;;;5031658;28;20131;-65
2023/09/18 00:04:05;;;;;;;19.75;15.45;;;15.80;99.90;;;;;;5030531;28;20102;-65
2023/09/18 00:06:31;;;;;;;17.13;14.13;;;15.80;99.90;;;;;;5049022;28;20132;-65
2023/09/18 00:08:56;;;;;;;16.88;14.48;;;15.80;99.90;;;;;;5049632;28;20144;-65
2023/09/18 00:11:22;;;;;;;17.42;14.10;;;15.70;99.90;;;;;;5048018;28;20090;-66
2023/09/18 00:13:48;;;;;;;18.33;15.00;;;15.70;99.90;;;;;;5048507;28;20098;-66
2023/09/18 00:16:13;;;;;;;18.92;15.32;;;15.70;99.90;;;;;;5046373;28;20041;-66
2023/09/18 00:18:39;;;;;;;19.02;15.60;;;15.60;99.90;;;;;;5049223;28;20607;-65
2023/09/18 00:21:06;;;;;;;18.90;15.43;;;15.60;99.90;;;;;;5047946;28;20060;-66
2023/09/18 00:23:35;;;;;;;23.67;17.88;;;15.50;99.90;;;;;;5048343;28;20044;-66
2023/09/18 00:26:00;;;;;;;25.45;17.25;;;15.50;99.90;;;;;;5047633;28;20048;-66
2023/09/18 00:28:26;;;;;;;58.13;20.17;;;15.50;99.90;;;;;;5048276;28;20033;-66
2023/09/18 00:30:51;;;;;;;27.83;18.00;;;15.50;99.90;;;;;;5046110;28;20041;-66
2023/09/18 00:33:19;;;;;;;32.80;19.83;;;15.50;99.90;;;;;;5049068;28;20526;-66
2023/09/18 00:35:51;;;;;;;35.97;19.52;;;15.60;99.90;;;;;;5042309;28;20042;-66
2023/09/18 00:38:19;;;;;;;36.47;20.25;;;15.60;99.90;;;;;;5036047;28;20381;-66
2023/09/18 00:40:44;;;;;;;33.30;20.73;;;15.60;99.90;;;;;;5051446;28;20076;-66
2023/09/18 00:43:11;;;;;;;59.38;20.55;;;15.70;99.90;;;;;;5052191;28;20069;-66
2023/09/18 00:45:41;;;;;;;29.95;18.08;;;15.70;99.90;;;;;;5050322;28;20052;-66
2023/09/18 00:48:07;;;;;;;41.38;18.23;;;15.70;99.90;;;;;;5035023;28;20036;-66
2023/09/18 00:50:33;;;;;;;31.40;17.38;;;15.60;99.90;;;;;;5051964;28;20105;-66
2023/09/18 00:53:00;;;;;;;26.27;18.17;;;15.60;99.90;;;;;;5052213;28;20049;-66
2023/09/18 00:55:27;;;;;;;34.03;18.67;;;15.60;99.90;;;;;;5050766;28;20410;-66
2023/09/18 00:57:55;;;;;;;41.30;19.27;;;15.60;99.90;;;;;;5051905;28;20052;-66
2023/09/18 01:00:22;;;;;;;27.13;18.58;;;15.60;99.90;;;;;;5041049;28;20033;-66
2023/09/18 01:02:48;;;;;;;36.75;19.40;;;15.60;99.90;;;;;;5030815;28;20057;-66
2023/09/18 01:05:16;;;;;;;81.18;22.13;;;15.60;99.90;;;;;;5032533;28;20041;-66
2023/09/18 01:07:42;;;;;;;29.33;19.35;;;15.60;99.90;;;;;;5031417;28;20400;-66
2023/09/18 01:10:09;;;;;;;31.10;21.00;;;15.60;99.90;;;;;;5031129;28;20090;-66
2023/09/18 01:12:44;;;;;;;35.38;22.40;;;15.60;99.90;;;;;;5026653;28;20040;-66
2023/09/18 01:15:36;;;;;;;33.05;22.17;;;15.60;99.90;;;;;;5049560;28;20037;-66
2023/09/18 01:18:03;;;;;;;30.20;20.92;;;15.70;99.90;;;;;;5034274;28;20174;-66
2023/09/18 01:20:28;;;;;;;29.17;21.38;;;15.60;99.90;;;;;;5051640;28;20127;-66
2023/09/18 01:22:54;;;;;;;35.58;21.98;;;15.60;99.90;;;;;;5051424;28;20519;-66
2023/09/18 01:25:19;;;;;;;40.08;25.15;;;15.70;99.90;;;;;;5050892;28;20190;-66
2023/09/18 01:27:45;;;;;;;35.58;23.67;;;15.70;99.90;;;;;;5034774;28;20079;-67
2023/09/18 01:30:12;;;;;;;34.55;23.50;;;15.70;99.90;;;;;;5048848;28;20151;-66
2023/09/18 01:32:39;;;;;;;38.13;25.20;;;15.70;99.90;;;;;;5050549;28;20044;-70
2023/09/18 01:35:07;;;;;;;44.03;27.23;;;15.70;99.90;;;;;;5051198;28;20496;-66
2023/09/18 01:37:35;;;;;;;43.67;28.10;;;15.80;99.90;;;;;;5051135;28;20405;-66
2023/09/18 01:40:04;;;;;;;46.60;28.52;;;15.90;99.90;;;;;;5050266;28;20040;-66
2023/09/18 01:42:32;;;;;;;45.95;28.42;;;15.90;99.90;;;;;;5051333;28;20334;-65
2023/09/18 01:44:57;;;;;;;45.35;28.42;;;16.00;99.90;;;;;;5049104;28;20044;-66
2023/09/18 01:47:23;;;;;;;43.60;27.90;;;16.00;99.90;;;;;;5049897;28;20044;-66
2023/09/18 01:49:49;;;;;;;47.80;30.27;;;16.00;99.90;;;;;;5050111;28;20182;-66
2023/09/18 01:52:15;;;;;;;47.75;28.98;;;16.00;99.90;;;;;;5051165;28;20111;-66
2023/09/18 01:54:41;;;;;;;45.95;27.65;;;16.00;99.90;;;;;;5049579;28;20060;-66
2023/09/18 01:57:07;;;;;;;45.15;28.60;;;16.10;99.90;;;;;;5051018;28;20032;-66
2023/09/18 01:59:33;;;;;;;44.83;29.45;;;16.10;99.90;;;;;;5048568;28;20048;-66
2023/09/18 02:01:59;;;;;;;52.47;30.05;;;16.10;99.90;;;;;;5050297;28;20041;-66
2023/09/18 02:04:25;;;;;;;43.70;28.55;;;16.10;99.90;;;;;;5038621;28;20068;-66
2023/09/18 02:06:51;;;;;;;48.33;29.27;;;16.10;99.90;;;;;;5032740;28;20117;-66
2023/09/18 02:09:17;;;;;;;46.80;28.08;;;16.10;99.90;;;;;;5029238;28;20045;-66
2023/09/18 02:11:45;;;;;;;45.95;28.40;;;16.10;99.90;;;;;;5030941;28;20034;-66
2023/09/18 02:14:11;;;;;;;43.00;27.85;;;16.10;99.90;;;;;;5028989;28;20821;-66
2023/09/18 02:16:42;;;;;;;45.35;27.40;;;16.10;99.90;;;;;;5030142;28;20124;-66
2023/09/18 02:19:13;;;;;;;41.75;25.63;;;16.10;99.90;;;;;;5029470;28;20378;-66
2023/09/18 02:21:39;;;;;;;40.70;26.10;;;16.10;99.90;;;;;;5030844;28;20038;-65
2023/09/18 02:24:04;;;;;;;39.35;25.98;;;16.10;99.90;;;;;;5029618;28;20397;-66
2023/09/18 02:26:30;;;;;;;44.25;26.40;;;16.10;99.90;;;;;;5013396;28;20053;-66
2023/09/18 02:28:59;;;;;;;40.60;26.58;;;16.10;99.90;;;;;;5029650;28;20373;-66
2023/09/18 02:31:25;;;;;;;44.53;26.13;;;16.20;99.90;;;;;;5029306;28;20037;-66
2023/09/18 02:33:50;;;;;;;44.72;26.58;;;16.20;99.90;;;;;;5029433;28;20083;-66
2023/09/18 02:36:16;;;;;;;40.22;25.65;;;16.20;99.90;;;;;;5030292;28;20037;-66
2023/09/18 02:38:42;;;;;;;41.17;25.00;;;16.20;99.90;;;;;;5030280;28;20033;-66
2023/09/18 02:41:08;;;;;;;43.00;25.58;;;16.20;99.90;;;;;;5028710;28;20137;-66
2023/09/18 02:43:34;;;;;;;37.55;25.00;;;16.20;99.90;;;;;;5030277;28;20124;-66
2023/09/18 02:45:59;;;;;;;37.55;24.85;;;16.20;99.90;;;;;;5028043;28;20038;-66
2023/09/18 02:48:25;;;;;;;44.38;26.17;;;16.30;99.90;;;;;;5013117;28;20451;-66
2023/09/18 02:50:50;;;;;;;38.45;24.30;;;16.30;99.90;;;;;;5029898;28;20187;-65
2023/09/18 02:53:21;;;;;;;36.28;24.25;;;16.20;99.90;;;;;;5029741;28;20048;-66
2023/09/18 02:55:52;;;;;;;37.78;24.90;;;16.30;99.90;;;;;;5012402;28;20087;-66
2023/09/18 02:58:19;;;;;;;35.58;23.58;;;16.30;99.90;;;;;;5029429;28;20144;-66
2023/09/18 03:00:46;;;;;;;35.78;23.20;;;16.30;99.90;;;;;;5027603;28;20077;-66
2023/09/18 03:03:13;;;;;;;38.30;22.90;;;16.30;99.90;;;;;;5012315;28;20132;-65
2023/09/18 03:05:39;;;;;;;36.70;23.30;;;16.30;99.90;;;;;;5029950;28;20129;-65
2023/09/18 03:08:05;;;;;;;32.30;22.25;;;16.30;99.90;;;;;;5029157;28;20085;-66
2023/09/18 03:10:35;;;;;;;34.00;22.08;;;16.30;99.90;;;;;;5028677;28;20052;-66
2023/09/18 03:13:04;;;;;;;36.00;22.50;;;16.30;99.90;;;;;;5029638;28;20041;-65
2023/09/18 03:15:30;;;;;;;36.37;22.87;;;16.30;99.90;;;;;;5026986;28;20041;-66
2023/09/18 03:17:57;;;;;;;34.15;22.10;;;16.20;99.90;;;;;;5012130;28;20276;-65
2023/09/18 03:20:23;;;;;;;32.88;21.08;;;16.30;99.90;;;;;;5029376;28;20385;-66
2023/09/18 03:23:00;;;;;;;31.23;21.00;;;16.20;99.90;;;;;;5029300;28;20689;-66
2023/09/18 03:25:26;;;;;;;30.45;20.95;;;16.30;99.90;;;;;;5028571;28;20041;-65
2023/09/18 03:27:53;;;;;;;32.88;21.55;;;16.30;99.90;;;;;;5030651;28;20331;-65
2023/09/18 03:30:20;;;;;;;30.85;21.05;;;16.30;99.90;;;;;;5026373;28;20121;-65
2023/09/18 03:32:45;;;;;;;31.92;20.77;;;16.30;99.90;;;;;;5028404;28;20041;-66
2023/09/18 03:35:17;;;;;;;33.35;21.92;;;16.20;99.90;;;;;;5030006;28;20124;-65
2023/09/18 03:37:56;;;;;;;31.83;20.25;;;16.20;99.90;;;;;;5048980;28;20091;-65
2023/09/18 03:40:22;;;;;;;29.27;19.17;;;16.30;99.90;;;;;;5048079;28;20041;-66
2023/09/18 03:42:48;;;;;;;30.73;19.92;;;16.30;99.90;;;;;;5049254;28;20037;-66
2023/09/18 03:45:17;;;;;;;29.70;19.73;;;16.30;99.90;;;;;;5045941;28;20421;-66
2023/09/18 03:47:42;;;;;;;28.83;19.90;;;16.30;99.90;;;;;;5047981;28;20201;-66
2023/09/18 03:50:11;;;;;;;30.05;19.77;;;16.40;99.90;;;;;;5049252;28;20045;-65
2023/09/18 03:52:39;;;;;;;30.30;19.88;;;16.40;99.90;;;;;;5048525;28;20040;-66
2023/09/18 03:55:06;;;;;;;28.42;18.80;;;16.40;99.90;;;;;;5047788;28;20037;-66
2023/09/18 03:57:31;;;;;;;32.78;18.80;;;16.40;99.90;;;;;;5050238;28;20147;-66
2023/09/18 03:59:57;;;;;;;25.55;19.00;;;16.40;99.90;;;;;;5046118;28;20072;-66
2023/09/18 04:02:24;;;;;;;29.45;19.05;;;16.50;99.90;;;;;;5035778;28;20604;-66
2023/09/18 04:04:50;;;;;;;28.75;19.15;;;16.50;99.90;;;;;;5028971;28;20083;-65
2023/09/18 04:07:16;;;;;;;27.63;19.35;;;16.50;99.90;;;;;;5028907;28;20134;-66
2023/09/18 04:09:42;;;;;;;26.58;18.63;;;16.60;99.90;;;;;;5028786;28;20151;-66
2023/09/18 04:12:08;;;;;;;25.92;18.55;;;16.60;99.90;;;;;;5028942;28;20124;-65
2023/09/18 04:14:33;;;;;;;27.98;18.20;;;16.60;99.90;;;;;;5025806;28;20097;-66
2023/09/18 04:17:02;;;;;;;29.25;18.60;;;16.60;99.90;;;;;;5028527;28;20108;-65
2023/09/18 04:19:28;;;;;;;29.63;18.50;;;16.60;99.90;;;;;;5027686;28;20052;-66
2023/09/18 04:21:54;;;;;;;29.17;18.75;;;16.70;99.90;;;;;;5028990;28;20045;-66
2023/09/18 04:24:20;;;;;;;25.00;16.60;;;16.60;99.90;;;;;;5027310;28;20040;-66
2023/09/18 04:26:46;;;;;;;27.25;18.02;;;16.70;99.90;;;;;;5028800;28;20049;-66
2023/09/18 04:29:11;;;;;;;26.00;16.60;;;16.60;99.90;;;;;;5026660;28;20053;-66
2023/09/18 04:31:38;;;;;;;29.33;18.23;;;16.60;99.90;;;;;;5027940;28;20045;-65
2023/09/18 04:34:03;;;;;;;24.00;16.65;;;16.60;99.90;;;;;;5027575;28;20084;-66
2023/09/18 04:36:29;;;;;;;25.92;17.48;;;16.60;99.90;;;;;;5039616;28;20068;-66
2023/09/18 04:38:55;;;;;;;28.02;18.60;;;16.60;99.90;;;;;;5048040;28;20369;-66
2023/09/18 04:41:20;;;;;;;28.65;18.02;;;16.60;99.90;;;;;;5047555;28;20048;-66
2023/09/18 04:43:46;;;;;;;24.45;16.67;;;16.70;99.90;;;;;;5048303;28;20356;-66
2023/09/18 04:46:12;;;;;;;27.17;18.30;;;16.70;99.90;;;;;;5045832;28;20551;-66
2023/09/18 04:48:38;;;;;;;26.02;17.63;;;16.70;99.90;;;;;;5047083;28;20129;-65
2023/09/18 04:51:03;;;;;;;27.77;17.50;;;16.80;99.90;;;;;;5048123;28;20124;-66
2023/09/18 04:53:30;;;;;;;29.30;17.75;;;16.80;99.90;;;;;;5047499;28;20044;-66
2023/09/18 04:55:55;;;;;;;27.00;16.42;;;16.80;99.90;;;;;;5047084;28;20037;-66
2023/09/18 04:58:21;;;;;;;28.13;17.73;;;16.90;99.90;;;;;;5048058;28;20111;-65
2023/09/18 05:00:54;;;;;;;28.80;17.42;;;16.90;99.90;;;;;;5045709;28;20075;-66
2023/09/18 05:03:20;;;;;;;29.33;17.08;;;16.90;99.90;;;;;;5047019;28;20140;-65
2023/09/18 05:05:46;;;;;;;28.60;16.15;;;16.90;99.90;;;;;;5048181;28;20119;-66
2023/09/18 05:08:11;;;;;;;25.25;16.42;;;17.00;99.90;;;;;;5046597;28;20125;-66
2023/09/18 05:10:37;;;;;;;23.58;16.23;;;16.90;99.90;;;;;;5047184;28;20090;-66
2023/09/18 05:13:03;;;;;;;22.88;15.38;;;17.00;99.90;;;;;;5031353;28;20121;-66
2023/09/18 05:15:29;;;;;;;28.63;16.17;;;16.90;99.90;;;;;;5045271;28;20119;-66
2023/09/18 05:17:57;;;;;;;24.80;16.35;;;17.00;99.90;;;;;;5047092;28;20060;-66
2023/09/18 05:20:25;;;;;;;26.98;15.32;;;16.90;99.90;;;;;;5047442;28;20052;-67
2023/09/18 05:22:54;;;;;;;24.05;15.02;;;17.00;99.90;;;;;;5046953;28;20087;-65
2023/09/18 05:25:21;;;;;;;24.13;15.27;;;17.00;99.90;;;;;;5047395;28;20056;-67
2023/09/18 05:27:48;;;;;;;21.38;14.57;;;17.00;99.90;;;;;;5051318;28;20045;-66
2023/09/18 05:30:22;;;;;;;20.45;14.40;;;17.10;99.90;;;;;;5050694;28;20048;-65
2023/09/18 05:32:48;;;;;;;19.73;14.00;;;17.10;99.90;;;;;;5052081;28;20477;-65
2023/09/18 05:35:14;;;;;;;22.63;14.25;;;17.20;99.90;;;;;;5049679;28;20102;-65
2023/09/18 05:37:41;;;;;;;25.13;13.57;;;17.20;99.90;;;;;;5031094;28;20103;-67
2023/09/18 05:40:12;;;;;;;20.70;13.77;;;17.30;99.90;;;;;;5045158;28;20068;-67
2023/09/18 05:42:39;;;;;;;21.13;13.35;;;17.30;99.90;;;;;;5046238;28;20108;-66
2023/09/18 05:45:05;;;;;;;22.17;13.60;;;17.30;99.90;;;;;;5030312;28;20041;-65
2023/09/18 05:47:32;;;;;;;22.60;13.77;;;17.30;99.90;;;;;;5031753;28;20037;-66
2023/09/18 05:49:58;;;;;;;19.27;12.85;;;17.40;99.90;;;;;;5030788;28;20124;-65
2023/09/18 05:52:24;;;;;;;18.00;12.93;;;17.40;99.90;;;;;;5031335;28;20191;-65
2023/09/18 05:54:50;;;;;;;21.45;12.88;;;17.40;99.90;;;;;;5031229;28;20041;-65
2023/09/18 05:57:16;;;;;;;20.02;12.60;;;17.40;99.90;;;;;;5030661;28;20395;-65
2023/09/18 05:59:44;;;;;;;22.67;13.07;;;17.40;99.90;;;;;;5028446;28;20037;-66
2023/09/18 06:02:10;;;;;;;18.83;12.23;;;17.40;99.90;;;;;;5029826;28;20139;-66
2023/09/18 06:04:36;;;;;;;17.98;12.75;;;17.40;99.90;;;;;;5031000;28;20128;-66
2023/09/18 06:07:06;;;;;;;16.35;11.50;;;17.50;99.90;;;;;;5031294;28;20053;-65
2023/09/18 06:09:31;;;;;;;22.63;12.18;;;17.50;99.90;;;;;;5028990;28;20052;-65
2023/09/18 06:11:58;;;;;;;17.58;11.82;;;17.60;99.90;;;;;;5030961;28;20041;-66
2023/09/18 06:14:23;;;;;;;22.10;12.15;;;17.60;99.90;;;;;;5028510;28;20053;-67
2023/09/18 06:16:49;;;;;;;18.05;10.68;;;17.60;99.90;;;;;;5030542;28;20037;-66
2023/09/18 06:19:17;;;;;;;19.08;10.27;;;17.70;99.90;;;;;;5029952;28;20124;-66
2023/09/18 06:21:44;;;;;;;16.10;10.05;;;17.80;99.90;;;;;;5030737;28;20458;-67
2023/09/18 06:24:09;;;;;;;15.90;10.13;;;17.80;99.90;;;;;;5029568;28;20076;-66
2023/09/18 06:26:35;;;;;;;14.50;10.05;;;17.90;99.90;;;;;;5030068;28;20552;-66
2023/09/18 06:29:01;;;;;;;15.40;9.73;;;17.90;99.90;;;;;;5029197;28;20377;-66
2023/09/18 06:31:27;;;;;;;14.18;9.73;;;17.90;99.90;;;;;;5012652;28;20045;-66
2023/09/18 06:33:53;;;;;;;17.50;9.48;;;17.90;99.90;;;;;;5029374;28;20044;-65
2023/09/18 06:36:19;;;;;;;15.02;8.70;;;17.90;99.90;;;;;;5029848;28;20083;-66
2023/09/18 06:38:44;;;;;;;14.63;8.95;;;17.90;99.90;;;;;;5029602;28;20064;-66
2023/09/18 06:41:10;;;;;;;14.63;9.38;;;17.90;99.90;;;;;;5029260;28;20049;-68
2023/09/18 06:43:35;;;;;;;13.48;8.88;;;17.90;99.90;;;;;;5030001;28;20041;-66
2023/09/18 06:46:01;;;;;;;15.30;8.98;;;17.90;99.90;;;;;;5029296;28;20400;-67
2023/09/18 06:48:27;;;;;;;19.48;9.43;;;18.00;99.90;;;;;;5029193;28;20049;-65
2023/09/18 06:50:52;;;;;;;24.92;11.25;;;18.00;99.90;;;;;;5029893;28;20045;-67
2023/09/18 06:53:18;;;;;;;38.70;11.70;;;17.70;99.90;;;;;;5028522;28;20730;-67
2023/09/18 06:55:43;;;;;;;20.08;10.98;;;17.60;99.90;;;;;;5029171;28;20112;-69
2023/09/18 06:58:09;;;;;;;22.17;11.70;;;17.60;99.90;;;;;;5029611;28;20052;-67
2023/09/18 07:00:34;;;;;;;29.83;12.27;;;17.50;99.90;;;;;;5028311;28;20045;-66
2023/09/18 07:03:00;;;;;;;33.38;13.10;;;17.80;99.90;;;;;;5030504;28;20068;-66
2023/09/18 07:05:26;;;;;;;27.65;12.63;;;17.30;99.90;;;;;;5029271;28;20378;-67
2023/09/18 07:07:51;;;;;;;24.02;12.98;;;18.30;99.90;;;;;;5030685;28;20629;-68
2023/09/18 07:10:17;;;;;;;30.55;13.75;;;17.30;99.90;;;;;;5030037;28;20087;-68
2023/09/18 07:12:42;;;;;;;27.33;14.18;;;16.70;99.90;;;;;;5029226;28;20053;-69
2023/09/18 07:15:08;;;;;;;32.80;14.50;;;17.90;99.90;;;;;;5028225;28;20172;-69
2023/09/18 07:17:34;;;;;;;26.00;14.55;;;16.70;99.90;;;;;;5012244;28;20037;-67
2023/09/18 07:20:01;;;;;;;32.97;17.05;;;18.20;99.90;;;;;;5029915;28;20073;-67
2023/09/18 07:22:26;;;;;;;33.50;17.08;;;18.10;99.90;;;;;;5030104;28;20037;-67
2023/09/18 07:24:52;;;;;;;36.80;17.77;;;16.80;99.90;;;;;;5029161;28;20194;-67
2023/09/18 07:27:17;;;;;;;38.08;17.92;;;18.30;99.90;;;;;;5028986;28;20377;-67
2023/09/18 07:29:43;;;;;;;29.58;15.38;;;17.30;99.90;;;;;;5032094;28;20122;-67
2023/09/18 07:32:09;;;;;;;28.20;13.63;;;16.90;99.90;;;;;;5039437;28;20064;-67
2023/09/18 07:34:35;;;;;;;35.03;12.98;;;17.00;99.90;;;;;;5049219;28;20044;-67
2023/09/18 07:37:00;;;;;;;39.03;14.32;;;17.00;99.90;;;;;;5033023;28;20036;-68
2023/09/18 07:39:26;;;;;;;30.42;13.68;;;18.20;99.90;;;;;;5042293;28;20704;-66
2023/09/18 07:41:52;;;;;;;32.30;13.52;;;17.30;99.90;;;;;;5038319;28;20048;-67
2023/09/18 07:44:21;;;;;;;37.70;13.30;;;18.00;99.90;;;;;;5025961;28;20072;-68
2023/09/18 07:46:47;;;;;;;24.73;12.05;;;17.80;99.90;;;;;;5047108;28;20377;-66
2023/09/18 07:49:14;;;;;;;28.63;13.93;;;18.50;99.90;;;;;;5048280;28;20101;-67
2023/09/18 07:51:39;;;;;;;26.17;13.18;;;18.70;99.90;;;;;;5047055;28;20044;-67
2023/09/18 07:54:07;;;;;;;26.92;12.88;;;17.80;99.90;;;;;;5048768;28;20048;-66
2023/09/18 07:56:34;;;;;;;24.65;13.75;;;17.30;99.90;;;;;;5033366;28;20044;-67
2023/09/18 07:59:00;;;;;;;27.27;15.00;;;18.80;99.90;;;;;;5029404;28;20079;-66
2023/09/18 08:01:25;;;;;;;27.42;14.63;;;18.20;99.90;;;;;;5041636;28;20064;-66
2023/09/18 08:03:51;;;;;;;29.25;15.88;;;17.60;99.90;;;;;;5028831;28;20046;-66
2023/09/18 08:06:19;;;;;;;24.60;14.73;;;18.70;99.90;;;;;;5042894;28;20045;-66
2023/09/18 08:08:45;;;;;;;28.88;16.02;;;17.50;99.90;;;;;;5029663;28;20045;-66
2023/09/18 08:11:11;;;;;;;29.50;16.08;;;18.20;99.90;;;;;;5032635;28;20033;-66
2023/09/18 08:13:37;;;;;;;30.95;16.33;;;19.00;99.90;;;;;;5047285;28;20522;-66
2023/09/18 08:16:05;;;;;;;33.10;16.48;;;18.80;99.90;;;;;;5040361;28;20459;-65
2023/09/18 08:18:31;;;;;;;36.30;17.15;;;19.00;99.90;;;;;;5043523;28;20033;-66
2023/09/18 08:20:58;;;;;;;34.00;16.40;;;18.20;99.90;;;;;;5030001;28;20056;-66
2023/09/18 08:23:26;;;;;;;32.55;16.17;;;17.70;99.90;;;;;;5035498;28;20068;-66
2023/09/18 08:25:55;;;;;;;32.40;16.15;;;17.70;99.90;;;;;;5036642;28;20069;-67
2023/09/18 08:28:21;;;;;;;30.23;16.23;;;19.20;99.90;;;;;;5011092;28;20152;-66
2023/09/18 08:30:47;;;;;;;29.90;15.77;;;18.50;99.90;;;;;;5043879;28;20055;-66
2023/09/18 08:33:13;;;;;;;31.77;15.27;;;18.80;99.90;;;;;;5048323;28;20033;-66
2023/09/18 08:35:39;;;;;;;32.45;15.43;;;18.70;99.90;;;;;;5039043;28;20491;-66
2023/09/18 08:38:05;;;;;;;30.40;15.50;;;19.00;99.90;;;;;;5027047;28;20041;-66
2023/09/18 08:40:32;;;;;;;29.58;14.63;;;18.90;99.90;;;;;;5028339;28;20034;-66
2023/09/18 08:43:03;;;;;;;31.70;16.00;;;19.10;99.90;;;;;;5031092;28;20199;-66
2023/09/18 08:45:43;;;;;;;32.15;16.73;;;17.50;99.90;;;;;;5030607;28;20106;-66
2023/09/18 08:48:09;;;;;;;29.80;17.02;;;17.60;99.90;;;;;;5026480;28;20497;-68
2023/09/18 08:50:36;;;;;;;31.48;16.02;;;17.50;99.90;;;;;;5043311;28;20376;-72
2023/09/18 08:53:02;;;;;;;33.55;17.60;;;18.70;99.90;;;;;;5032133;28;20107;-65
2023/09/18 08:55:28;;;;;;;37.67;16.67;;;18.20;99.90;;;;;;5038957;28;20076;-65
2023/09/18 08:57:55;;;;;;;30.98;16.67;;;17.60;99.90;;;;;;5027719;28;20402;-66
2023/09/18 09:00:21;;;;;;;32.35;17.40;;;17.80;99.90;;;;;;5027074;28;20038;-66
2023/09/18 09:02:50;;;;;;;37.80;17.98;;;19.00;99.90;;;;;;5031991;28;20053;-65
2023/09/18 09:05:16;;;;;;;36.00;18.63;;;18.20;99.90;;;;;;5031413;28;20489;-66
2023/09/18 09:07:42;;;;;;;34.90;17.40;;;17.90;99.90;;;;;;5031174;28;20049;-65
2023/09/18 09:10:07;;;;;;;37.55;19.15;;;18.50;99.90;;;;;;5042557;28;20076;-65
2023/09/18 09:13:01;;;;;;;39.28;18.45;;;18.70;99.90;;;;;;5035512;28;20148;-66
2023/09/18 09:15:29;;;;;;;48.33;19.95;;;19.30;99.90;;;;;;5029933;28;20054;-66
2023/09/18 09:18:06;;;;;;;46.72;21.05;;;18.80;99.90;;;;;;5040998;28;20056;-66
2023/09/18 09:20:32;;;;;;;39.42;19.27;;;19.30;99.90;;;;;;5039537;28;20041;-65
2023/09/18 09:23:01;;;;;;;38.30;18.98;;;18.70;99.90;;;;;;5048343;28;20497;-67
2023/09/18 09:25:31;;;;;;;45.75;21.52;;;19.20;99.90;;;;;;5032446;28;20041;-66
2023/09/18 09:28:07;;;;;;;52.58;21.33;;;18.80;99.90;;;;;;5032888;28;20041;-66
2023/09/18 09:30:35;;;;;;;44.10;20.05;;;18.00;99.90;;;;;;5030013;28;20041;-65
2023/09/18 09:33:04;;;;;;;50.13;21.13;;;18.00;99.90;;;;;;5031347;28;20504;-66
2023/09/18 09:35:35;;;;;;;40.33;20.73;;;18.60;99.90;;;;;;5030773;28;20041;-66
2023/09/18 09:38:09;;;;;;;42.38;20.88;;;18.90;99.90;;;;;;5022049;28;20053;-66
2023/09/18 09:40:35;;;;;;;42.10;20.48;;;19.30;99.90;;;;;;5031505;28;20037;-67
2023/09/18 09:43:02;;;;;;;44.17;21.08;;;18.90;99.90;;;;;;5046801;28;20049;-66
2023/09/18 09:45:35;;;;;;;37.47;20.40;;;19.30;99.90;;;;;;5030464;28;20611;-66
2023/09/18 09:48:08;;;;;;;41.28;20.42;;;18.90;99.90;;;;;;5029683;28;20586;-67
2023/09/18 09:50:46;;;;;;;44.63;21.42;;;18.40;99.90;;;;;;5032033;28;20155;-66
2023/09/18 09:53:13;;;;;;;43.80;21.73;;;18.80;99.90;;;;;;5036681;28;20086;-65
2023/09/18 09:55:40;;;;;;;39.10;21.40;;;18.70;99.90;;;;;;5049619;28;20047;-67
2023/09/18 09:58:06;;;;;;;40.03;21.55;;;19.30;99.90;;;;;;5039936;28;20037;-65
2023/09/18 10:00:42;;;;;;;40.65;21.75;;;19.60;99.90;;;;;;5029518;28;20522;-66
2023/09/18 10:03:10;;;;;;;41.60;21.88;;;19.00;99.90;;;;;;5035120;28;20090;-67
2023/09/18 10:05:44;;;;;;;40.53;21.05;;;19.20;99.90;;;;;;5050577;28;20040;-67
2023/09/18 10:08:22;;;;;;;37.65;21.60;;;20.10;99.90;;;;;;5038502;28;20076;-67
2023/09/18 10:10:50;;;;;;;36.85;20.40;;;19.90;99.90;;;;;;5046347;28;20098;-67
2023/09/18 10:13:18;;;;;;;34.45;18.80;;;19.70;99.90;;;;;;5051925;28;20078;-66
2023/09/18 10:15:46;;;;;;;31.17;18.30;;;19.70;99.90;;;;;;5047824;28;20096;-68
2023/09/18 10:18:34;;;;;;;29.08;17.92;;;19.20;99.90;;;;;;5029777;28;20054;-67
2023/09/18 10:21:31;;;;;;;30.30;18.55;;;19.90;99.90;;;;;;5038379;28;20041;-68
2023/09/18 10:24:02;;;;;;;28.75;17.15;;;19.50;99.90;;;;;;5040656;28;20581;-67
2023/09/18 10:26:29;;;;;;;29.42;17.05;;;19.90;99.90;;;;;;5030180;28;20069;-68
2023/09/18 10:28:58;;;;;;;29.15;16.95;;;19.60;99.90;;;;;;5029702;28;20103;-68
2023/09/18 10:31:26;;;;;;;28.23;16.15;;;19.70;99.90;;;;;;5035295;28;20041;-68
2023/09/18 10:33:53;;;;;;;25.65;15.57;;;19.40;99.90;;;;;;5039217;28;20053;-69
2023/09/18 10:36:20;;;;;;;27.08;15.93;;;20.00;99.90;;;;;;5018776;28;20048;-68
2023/09/18 10:38:50;;;;;;;25.08;14.52;;;20.00;99.90;;;;;;5029848;28;20060;-68
2023/09/18 10:41:19;;;;;;;21.92;14.50;;;19.50;99.90;;;;;;5037266;28;20041;-68
2023/09/18 10:43:47;;;;;;;21.35;13.75;;;20.10;99.90;;;;;;5030218;28;20036;-68
2023/09/18 10:46:13;;;;;;;23.40;13.70;;;19.70;99.90;;;;;;5035232;28;20041;-69
2023/09/18 10:48:42;;;;;;;18.55;12.68;;;20.00;99.90;;;;;;5037865;28;20377;-69
2023/09/18 10:51:09;;;;;;;18.75;12.50;;;20.10;99.90;;;;;;5028450;28;20041;-69
2023/09/18 10:53:35;;;;;;;16.33;10.93;;;19.60;99.90;;;;;;5040430;28;20041;-70
2023/09/18 10:56:04;;;;;;;17.48;11.38;;;20.10;99.90;;;;;;5030179;28;20048;-70
2023/09/18 10:58:30;;;;;;;16.38;10.20;;;20.30;99.90;;;;;;5029803;28;20096;-72
2023/09/18 11:00:57;;;;;;;14.50;9.20;;;19.90;99.90;;;;;;5029180;28;20634;-70
2023/09/18 11:03:23;;;;;;;15.70;9.80;;;19.60;99.90;;;;;;5028623;28;20128;-70
2023/09/18 11:06:10;;;;;;;11.45;8.70;;;19.80;99.90;;;;;;5034409;28;20076;-72
2023/09/18 11:08:45;;;;;;;13.82;8.57;;;19.90;99.90;;;;;;5038704;28;20492;-74
2023/09/18 11:11:16;;;;;;;9.63;7.10;;;20.20;99.90;;;;;;5028772;28;20382;-74
2023/09/18 11:13:45;;;;;;;7.35;6.40;;;19.80;99.90;;;;;;5045940;28;20052;-73
2023/09/18 11:16:28;;;;;;;9.07;7.22;;;19.90;99.90;;;;;;5026963;28;20041;-71
2023/09/18 11:19:00;;;;;;;11.25;6.80;;;19.90;99.90;;;;;;5031409;28;20157;-72
2023/09/18 11:21:27;;;;;;;9.00;6.60;;;19.60;99.90;;;;;;5035537;28;20361;-73
2023/09/18 11:24:10;;;;;;;10.68;6.53;;;19.80;99.90;;;;;;5027900;28;20100;-71
2023/09/18 11:26:39;;;;;;;10.10;7.25;;;19.90;99.90;;;;;;5019550;28;20033;-71
2023/09/18 11:29:08;;;;;;;8.40;6.70;;;19.60;99.90;;;;;;5036563;28;20041;-71
2023/09/18 11:31:56;;;;;;;8.98;6.60;;;19.90;99.90;;;;;;5048155;28;20041;-71
2023/09/18 11:34:27;;;;;;;9.68;6.60;;;20.20;99.90;;;;;;5023261;28;20045;-70
2023/09/18 11:36:54;;;;;;;9.35;7.07;;;20.00;99.90;;;;;;5029025;28;20029;-70
2023/09/18 11:39:40;;;;;;;8.07;6.68;;;20.20;99.90;;;;;;5027731;28;20045;-70
2023/09/18 11:42:19;;;;;;;10.77;6.15;;;20.30;99.90;;;;;;5042495;28;20041;-70
2023/09/18 11:44:48;;;;;;;7.47;6.18;;;20.20;99.90;;;;;;5009802;28;20807;-70
2023/09/18 11:47:19;;;;;;;6.57;5.43;;;20.40;99.90;;;;;;5027315;28;20681;-70
2023/09/18 11:49:54;;;;;;;7.55;6.68;;;20.40;99.90;;;;;;5031531;28;20056;-69
2023/09/18 11:52:21;;;;;;;8.27;6.00;;;20.40;99.90;;;;;;5023791;28;20088;-68
2023/09/18 11:54:47;;;;;;;8.45;5.28;;;20.50;99.90;;;;;;5026959;28;20041;-71
2023/09/18 11:57:13;;;;;;;7.65;5.22;;;20.70;99.90;;;;;;5044156;28;20862;-70
2023/09/18 11:59:42;;;;;;;7.28;5.40;;;20.80;99.90;;;;;;5029063;28;20043;-69
2023/09/18 12:02:08;;;;;;;5.25;4.60;;;20.80;99.90;;;;;;5016392;28;20661;-68
2023/09/18 12:04:34;;;;;;;7.05;4.97;;;20.90;99.90;;;;;;5036874;28;20052;-71
2023/09/18 12:07:02;;;;;;;4.90;4.20;;;20.90;99.90;;;;;;5012031;28;20052;-69
2023/09/18 12:09:32;;;;;;;6.40;4.57;;;20.70;99.90;;;;;;5026540;28;20717;-71
2023/09/18 12:12:05;;;;;;;4.85;4.20;;;20.60;99.90;;;;;;5029981;28;20037;-73
2023/09/18 12:14:32;;;;;;;6.18;4.30;;;20.50;99.90;;;;;;5039507;28;20176;-71
2023/09/18 12:17:03;;;;;;;5.30;4.75;;;20.50;99.90;;;;;;5038173;28;20525;-70
2023/09/18 12:19:28;;;;;;;8.70;5.28;;;20.50;99.90;;;;;;5047700;28;20080;-70
2023/09/18 12:21:54;;;;;;;7.00;4.18;;;20.50;99.90;;;;;;5031962;28;20076;-71
2023/09/18 12:24:27;;;;;;;7.13;4.50;;;20.50;99.90;;;;;;5042499;28;20038;-70
2023/09/18 12:26:54;;;;;;;6.63;4.53;;;20.40;99.90;;;;;;5028741;28;20124;-69
2023/09/18 12:29:21;;;;;;;7.75;5.00;;;20.30;99.90;;;;;;5038521;28;20045;-69
2023/09/18 12:31:47;;;;;;;11.18;5.50;;;19.80;99.90;;;;;;5031650;28;20442;-68